createdAt,value
2022-07-30T00:00:25.092Z,93.17
2022-07-30T00:01:20.974Z,93.07
2022-07-30T00:02:20.850Z,93.41
2022-07-30T00:03:20.857Z,93.37
2022-07-30T00:04:20.821Z,93.41
2022-07-30T00:05:20.811Z,93.37
2022-07-30T00:06:20.793Z,93.52
2022-07-30T00:07:20.776Z,93.52
2022-07-30T00:08:20.764Z,93.52
2022-07-30T00:09:20.746Z,93.37
2022-07-30T00:10:20.768Z,93.27
2022-07-30T00:11:24.587Z,93.57
2022-07-30T00:12:20.716Z,93.41
2022-07-30T00:13:20.702Z,93.12
2022-07-30T00:14:20.689Z,93.32
2022-07-30T00:15:20.674Z,93.41
2022-07-30T00:16:20.672Z,93.27
2022-07-30T00:17:20.639Z,93.32
2022-07-30T00:18:20.632Z,93.27
2022-07-30T00:19:20.616Z,93.52
2022-07-30T00:20:20.604Z,93.52
2022-07-30T00:21:38.769Z,93.17
2022-07-30T00:22:20.579Z,93.07
2022-07-30T00:23:20.566Z,92.97
2022-07-30T00:24:20.555Z,93.01
2022-07-30T00:25:20.542Z,93.01
2022-07-30T00:26:20.533Z,93.01
2022-07-30T00:27:20.516Z,93.07
2022-07-30T00:28:20.505Z,93.07
2022-07-30T00:29:20.485Z,93.21
2022-07-30T00:30:20.477Z,93.21
2022-07-30T00:31:20.462Z,93.21
2022-07-30T00:32:20.442Z,93.48
2022-07-30T00:33:20.431Z,93.41
2022-07-30T00:34:20.416Z,93.32
2022-07-30T00:35:20.406Z,93.41
2022-07-30T00:36:20.389Z,93.41
2022-07-30T00:37:20.379Z,93.37
2022-07-30T00:38:20.369Z,93.41
2022-07-30T00:39:20.346Z,93.32
2022-07-30T00:40:20.346Z,93.41
2022-07-30T00:41:20.327Z,93.32
2022-07-30T00:42:20.322Z,93.21
2022-07-30T00:43:20.302Z,93.12
2022-07-30T00:44:20.284Z,93.07
2022-07-30T00:45:20.273Z,93.21
2022-07-30T00:46:20.309Z,92.97
2022-07-30T00:47:20.243Z,92.97
2022-07-30T00:48:20.233Z,93.07
2022-07-30T00:49:20.288Z,93.07
2022-07-30T00:50:20.206Z,92.97
2022-07-30T00:51:20.191Z,92.81
2022-07-30T00:52:20.183Z,92.77
2022-07-30T00:53:20.162Z,92.46
2022-07-30T00:54:20.155Z,92.26
2022-07-30T00:55:20.142Z,92.26
2022-07-30T00:56:20.132Z,92.36
2022-07-30T00:57:20.112Z,92.66
2022-07-30T00:58:20.097Z,92.57
2022-07-30T00:59:20.089Z,92.16
2022-07-30T01:00:20.081Z,92.02
2022-07-30T01:01:20.217Z,92.12
2022-07-30T01:02:20.110Z,92.12
2022-07-30T01:03:20.035Z,92.22
2022-07-30T01:04:20.022Z,92.02
2022-07-30T01:05:20.021Z,92.16
2022-07-30T01:06:19.997Z,92.16
2022-07-30T01:07:19.975Z,92.36
2022-07-30T01:08:19.972Z,92.32
2022-07-30T01:09:19.955Z,92.26
2022-07-30T01:10:19.938Z,92.57
2022-07-30T01:11:19.929Z,92.26
2022-07-30T01:12:19.918Z,92.36
2022-07-30T01:13:19.896Z,92.57
2022-07-30T01:14:19.891Z,92.77
2022-07-30T01:15:19.878Z,92.77
2022-07-30T01:16:19.902Z,92.46
2022-07-30T01:17:19.849Z,92.36
2022-07-30T01:18:19.841Z,92.57
2022-07-30T01:19:19.819Z,92.81
2022-07-30T01:20:19.808Z,92.77
2022-07-30T01:21:19.791Z,92.97
2022-07-30T01:22:19.781Z,92.86
2022-07-30T01:23:19.767Z,93.07
2022-07-30T01:24:19.756Z,93.12
2022-07-30T01:25:19.738Z,93.12
2022-07-30T01:26:19.725Z,93.01
2022-07-30T01:27:20.127Z,93.21
2022-07-30T01:28:19.701Z,93.21
2022-07-30T01:29:19.693Z,93.01
2022-07-30T01:30:19.676Z,92.91
2022-07-30T01:31:19.776Z,92.61
2022-07-30T01:32:19.649Z,92.61
2022-07-30T01:33:19.634Z,93.12
2022-07-30T01:34:19.626Z,92.91
2022-07-30T01:35:19.608Z,92.71
2022-07-30T01:36:19.599Z,92.81
2022-07-30T01:37:20.394Z,92.76
2022-07-30T01:38:19.565Z,93.05
2022-07-30T01:39:19.550Z,93.12
2022-07-30T01:40:19.543Z,93.12
2022-07-30T01:41:19.533Z,93.32
2022-07-30T01:42:19.511Z,93.36
2022-07-30T01:43:19.500Z,93.46
2022-07-30T01:44:24.015Z,93.46
2022-07-30T01:45:19.540Z,93.46
2022-07-30T01:46:19.546Z,93.66
2022-07-30T01:47:19.449Z,93.66
2022-07-30T01:48:19.438Z,93.66
2022-07-30T01:49:19.493Z,93.66
2022-07-30T01:50:19.409Z,93.56
2022-07-30T01:51:19.395Z,93.56
2022-07-30T01:52:19.383Z,93.72
2022-07-30T01:53:19.374Z,93.87
2022-07-30T01:54:19.359Z,93.76
2022-07-30T01:55:19.346Z,93.66
2022-07-30T01:56:19.334Z,93.76
2022-07-30T01:57:19.320Z,93.76
2022-07-30T01:58:19.309Z,93.87
2022-07-30T01:59:19.290Z,93.76
2022-07-30T02:00:19.277Z,93.76
2022-07-30T02:01:19.333Z,93.87
2022-07-30T02:02:19.251Z,93.96
2022-07-30T02:03:19.305Z,94.07
2022-07-30T02:04:19.225Z,94.07
2022-07-30T02:05:19.405Z,93.87
2022-07-30T02:06:19.203Z,93.96
2022-07-30T02:07:19.182Z,94.01
2022-07-30T02:08:19.170Z,93.87
2022-07-30T02:09:19.151Z,93.96
2022-07-30T02:10:19.141Z,94.01
2022-07-30T02:11:19.128Z,94.21
2022-07-30T02:12:19.117Z,94.07
2022-07-30T02:13:19.104Z,94.21
2022-07-30T02:14:19.096Z,94.17
2022-07-30T02:15:19.072Z,94.21
2022-07-30T02:16:19.143Z,94.21
2022-07-30T02:17:19.400Z,94.31
2022-07-30T02:18:19.044Z,94.31
2022-07-30T02:19:19.022Z,94.31
2022-07-30T02:20:19.014Z,94.31
2022-07-30T02:21:18.995Z,94.31
2022-07-30T02:22:19.061Z,94.36
2022-07-30T02:23:18.968Z,94.46
2022-07-30T02:24:18.957Z,94.46
2022-07-30T02:25:18.945Z,94.31
2022-07-30T02:26:18.935Z,94.36
2022-07-30T02:27:18.913Z,94.56
2022-07-30T02:28:18.904Z,94.56
2022-07-30T02:29:18.886Z,94.56
2022-07-30T02:30:18.882Z,94.56
2022-07-30T02:31:18.910Z,94.71
2022-07-30T02:32:18.855Z,94.66
2022-07-30T02:33:18.835Z,94.81
2022-07-30T02:34:18.821Z,94.56
2022-07-30T02:35:18.805Z,94.71
2022-07-30T02:36:18.798Z,94.71
2022-07-30T02:37:18.774Z,94.71
2022-07-30T02:38:18.766Z,94.81
2022-07-30T02:39:18.751Z,94.81
2022-07-30T02:40:18.747Z,94.81
2022-07-30T02:41:18.728Z,94.81
2022-07-30T02:42:18.712Z,94.81
2022-07-30T02:43:18.697Z,94.81
2022-07-30T02:44:18.697Z,95.01
2022-07-30T02:45:18.678Z,95.01
2022-07-30T02:46:18.745Z,94.91
2022-07-30T02:47:18.646Z,94.91
2022-07-30T02:48:34.476Z,94.95
2022-07-30T02:49:18.713Z,94.91
2022-07-30T02:50:18.614Z,95.01
2022-07-30T02:51:18.596Z,95.15
2022-07-30T02:52:18.670Z,95.15
2022-07-30T02:53:18.565Z,95.11
2022-07-30T02:54:18.546Z,95.11
2022-07-30T02:55:18.542Z,95.11
2022-07-30T02:56:18.527Z,95.11
2022-07-30T02:57:18.522Z,95.06
2022-07-30T02:58:18.503Z,95.15
2022-07-30T02:59:18.492Z,95.06
2022-07-30T03:00:18.471Z,95.15
2022-07-30T03:01:18.516Z,95.15
2022-07-30T03:02:18.523Z,95.15
2022-07-30T03:03:18.436Z,95.15
2022-07-30T03:04:18.419Z,95.15
2022-07-30T03:05:18.403Z,95.20
2022-07-30T03:06:18.388Z,95.26
2022-07-30T03:07:18.377Z,95.26
2022-07-30T03:08:19.830Z,95.26
2022-07-30T03:09:18.355Z,95.26
2022-07-30T03:10:18.339Z,95.30
2022-07-30T03:11:18.324Z,95.30
2022-07-30T03:12:18.316Z,95.30
2022-07-30T03:13:18.300Z,95.40
2022-07-30T03:14:18.284Z,95.40
2022-07-30T03:15:18.277Z,95.50
2022-07-30T03:16:18.325Z,95.50
2022-07-30T03:17:18.254Z,95.50
2022-07-30T03:18:18.236Z,95.50
2022-07-30T03:19:18.226Z,95.40
2022-07-30T03:20:18.207Z,95.50
2022-07-30T03:21:18.190Z,95.50
2022-07-30T03:22:18.175Z,95.50
2022-07-30T03:23:18.181Z,95.50
2022-07-30T03:24:18.151Z,95.50
2022-07-30T03:25:18.146Z,95.50
2022-07-30T03:26:18.127Z,95.61
2022-07-30T03:27:18.122Z,95.50
2022-07-30T03:28:18.098Z,95.50
2022-07-30T03:29:18.091Z,95.50
2022-07-30T03:30:18.069Z,95.56
2022-07-30T03:31:18.133Z,95.61
2022-07-30T03:32:18.046Z,95.50
2022-07-30T03:33:18.034Z,95.50
2022-07-30T03:34:18.017Z,95.50
2022-07-30T03:35:20.347Z,95.40
2022-07-30T03:36:17.996Z,95.45
2022-07-30T03:37:17.981Z,95.40
2022-07-30T03:38:17.972Z,95.50
2022-07-30T03:39:17.955Z,95.65
2022-07-30T03:40:17.940Z,95.61
2022-07-30T03:41:17.932Z,95.71
2022-07-30T03:42:17.915Z,95.65
2022-07-30T03:43:32.613Z,95.65
2022-07-30T03:44:17.885Z,95.65
2022-07-30T03:45:17.887Z,95.65
2022-07-30T03:46:17.943Z,95.65
2022-07-30T03:47:17.849Z,95.55
2022-07-30T03:48:17.834Z,95.55
2022-07-30T03:49:17.915Z,95.55
2022-07-30T03:50:17.804Z,95.55
2022-07-30T03:51:17.796Z,95.55
2022-07-30T03:52:17.783Z,95.65
2022-07-30T03:53:17.775Z,95.70
2022-07-30T03:54:17.756Z,95.75
2022-07-30T03:55:17.750Z,95.79
2022-07-30T03:56:17.731Z,95.79
2022-07-30T03:57:20.393Z,95.65
2022-07-30T03:58:17.705Z,95.65
2022-07-30T03:59:17.696Z,95.65
2022-07-30T04:00:17.676Z,95.70
2022-07-30T04:01:17.734Z,95.70
2022-07-30T04:02:17.647Z,95.79
2022-07-30T04:03:17.739Z,95.70
2022-07-30T04:04:17.620Z,95.79
2022-07-30T04:05:17.615Z,95.79
2022-07-30T04:06:17.592Z,95.79
2022-07-30T04:07:17.584Z,95.79
2022-07-30T04:08:17.572Z,95.79
2022-07-30T04:09:17.561Z,95.79
2022-07-30T04:10:17.550Z,95.79
2022-07-30T04:11:17.535Z,95.79
2022-07-30T04:12:17.518Z,95.79
2022-07-30T04:13:17.512Z,95.70
2022-07-30T04:14:17.495Z,95.79
2022-07-30T04:16:40.169Z,95.79
2022-07-30T04:16:40.170Z,95.79
2022-07-30T04:17:17.526Z,95.70
2022-07-30T04:18:17.433Z,95.70
2022-07-30T04:19:17.428Z,95.70
2022-07-30T04:20:18.160Z,95.79
2022-07-30T04:21:17.531Z,95.70
2022-07-30T04:22:17.389Z,95.79
2022-07-30T04:23:17.379Z,95.90
2022-07-30T04:24:17.362Z,95.90
2022-07-30T04:25:24.207Z,95.90
2022-07-30T04:26:17.332Z,95.90
2022-07-30T04:27:17.320Z,96.00
2022-07-30T04:28:17.308Z,95.90
2022-07-30T04:29:21.399Z,95.90
2022-07-30T04:30:17.276Z,95.79
2022-07-30T04:31:17.342Z,95.79
2022-07-30T04:32:17.255Z,95.70
2022-07-30T04:33:17.247Z,95.65
2022-07-30T04:34:17.232Z,95.70
2022-07-30T04:35:49.942Z,95.70
2022-07-30T04:36:17.203Z,95.70
2022-07-30T04:37:17.189Z,95.70
2022-07-30T04:38:17.178Z,95.79
2022-07-30T04:39:17.159Z,95.75
2022-07-30T04:40:17.148Z,95.90
2022-07-30T04:41:17.179Z,95.79
2022-07-30T04:42:17.123Z,95.70
2022-07-30T04:43:17.124Z,95.65
2022-07-30T04:44:17.096Z,95.79
2022-07-30T04:45:17.081Z,95.65
2022-07-30T04:46:17.105Z,95.70
2022-07-30T04:47:17.057Z,95.55
2022-07-30T04:48:17.044Z,95.55
2022-07-30T04:49:17.139Z,95.45
2022-07-30T04:50:17.020Z,95.55
2022-07-30T04:51:17.010Z,95.55
2022-07-30T04:52:16.990Z,95.40
2022-07-30T04:53:16.983Z,95.55
2022-07-30T04:54:16.967Z,95.30
2022-07-30T04:55:16.954Z,95.30
2022-07-30T04:56:16.937Z,95.30
2022-07-30T04:57:16.928Z,95.30
2022-07-30T04:58:16.906Z,95.20
2022-07-30T04:59:16.901Z,95.20
2022-07-30T05:00:16.893Z,95.10
2022-07-30T05:01:16.922Z,95.10
2022-07-30T05:02:16.934Z,95.06
2022-07-30T05:03:16.850Z,95.00
2022-07-30T05:04:16.833Z,94.95
2022-07-30T05:05:16.869Z,94.95
2022-07-30T05:06:16.808Z,94.75
2022-07-30T05:07:16.802Z,94.85
2022-07-30T05:08:16.785Z,94.75
2022-07-30T05:09:16.771Z,94.71
2022-07-30T05:10:16.756Z,94.65
2022-07-30T05:11:16.746Z,94.60
2022-07-30T05:12:16.727Z,94.60
2022-07-30T05:13:16.719Z,94.50
2022-07-30T05:14:16.703Z,94.40
2022-07-30T05:15:16.688Z,94.36
2022-07-30T05:16:16.741Z,94.26
2022-07-30T05:17:16.658Z,94.15
2022-07-30T05:18:16.644Z,93.95
2022-07-30T05:19:16.634Z,93.81
2022-07-30T05:20:16.622Z,93.91
2022-07-30T05:21:16.614Z,94.01
2022-07-30T05:22:16.598Z,93.81
2022-07-30T05:23:16.585Z,93.81
2022-07-30T05:24:16.587Z,93.60
2022-07-30T05:25:16.562Z,93.36
2022-07-30T05:26:16.545Z,93.46
2022-07-30T05:27:16.546Z,93.36
2022-07-30T05:28:16.518Z,93.36
2022-07-30T05:29:19.792Z,93.21
2022-07-30T05:30:16.485Z,92.96
2022-07-30T05:31:16.523Z,92.91
2022-07-30T05:32:16.468Z,92.71
2022-07-30T05:33:16.451Z,92.71
2022-07-30T05:34:16.463Z,92.57
2022-07-30T05:35:16.425Z,92.30
2022-07-30T05:36:16.411Z,91.86
2022-07-30T05:37:16.397Z,91.96
2022-07-30T05:38:16.378Z,91.96
2022-07-30T05:39:16.505Z,91.86
2022-07-30T05:40:16.354Z,91.76
2022-07-30T05:41:24.557Z,91.35
2022-07-30T05:42:16.323Z,90.95
2022-07-30T05:43:16.312Z,90.95
2022-07-30T05:44:19.593Z,91.41
2022-07-30T05:45:16.292Z,91.11
2022-07-30T05:46:16.301Z,90.41
2022-07-30T05:47:16.270Z,90.26
2022-07-30T05:48:16.251Z,90.36
2022-07-30T05:49:16.266Z,90.46
2022-07-30T05:50:16.226Z,90.46
2022-07-30T05:51:16.210Z,90.42
2022-07-30T05:52:16.189Z,90.62
2022-07-30T05:53:16.181Z,88.30
2022-07-30T05:54:16.165Z,88.16
2022-07-30T05:55:16.154Z,87.65
2022-07-30T05:56:16.137Z,87.96
2022-07-30T05:57:16.127Z,87.62
2022-07-30T05:58:16.112Z,87.21
2022-07-30T05:59:16.102Z,86.61
2022-07-30T06:00:16.113Z,87.21
2022-07-30T06:01:16.125Z,86.00
2022-07-30T06:02:16.067Z,85.56
2022-07-30T06:03:16.054Z,85.86
2022-07-30T06:04:16.085Z,84.05
2022-07-30T06:05:16.020Z,85.31
2022-07-30T06:06:19.689Z,82.70
2022-07-30T06:07:15.995Z,83.40
2022-07-30T06:08:15.982Z,82.30
2022-07-30T06:09:15.977Z,82.56
2022-07-30T06:10:15.959Z,82.46
2022-07-30T06:11:15.946Z,82.56
2022-07-30T06:12:15.930Z,80.71
2022-07-30T06:13:15.919Z,81.62
2022-07-30T06:14:15.904Z,80.61
2022-07-30T06:15:16.623Z,80.21
2022-07-30T06:16:16.048Z,80.71
2022-07-30T06:17:15.871Z,81.07
2022-07-30T06:18:15.846Z,78.46
2022-07-30T06:19:19.538Z,79.13
2022-07-30T06:20:15.821Z,79.53
2022-07-30T06:21:15.818Z,78.73
2022-07-30T06:22:15.977Z,79.19
2022-07-30T06:23:15.783Z,77.19
2022-07-30T06:24:15.772Z,75.48
2022-07-30T06:25:18.692Z,77.85
2022-07-30T06:26:15.751Z,77.45
2022-07-30T06:27:15.736Z,77.15
2022-07-30T06:28:36.320Z,75.71
2022-07-30T06:29:15.708Z,74.40
2022-07-30T06:30:15.693Z,74.10
2022-07-30T06:31:15.763Z,73.90
2022-07-30T06:32:15.661Z,74.10
2022-07-30T06:33:15.650Z,74.74
2022-07-30T06:34:15.635Z,75.14
2022-07-30T06:35:15.624Z,76.01
2022-07-30T06:36:15.614Z,74.77
2022-07-30T06:37:15.602Z,75.17
2022-07-30T06:38:15.590Z,74.57
2022-07-30T06:39:15.574Z,74.43
2022-07-30T06:40:15.557Z,74.30
2022-07-30T06:41:15.549Z,73.60
2022-07-30T06:42:15.535Z,71.59
2022-07-30T06:43:15.523Z,72.86
2022-07-30T06:44:15.503Z,71.66
2022-07-30T06:45:15.498Z,73.19
2022-07-30T06:46:15.498Z,72.56
2022-07-30T06:47:15.468Z,73.66
2022-07-30T06:48:15.459Z,72.23
2022-07-30T06:49:15.524Z,72.63
2022-07-30T06:50:15.430Z,69.39
2022-07-30T06:51:15.421Z,69.69
2022-07-30T06:52:18.652Z,68.73
2022-07-30T06:53:15.393Z,70.56
2022-07-30T06:54:15.376Z,70.66
2022-07-30T06:55:15.368Z,70.36
2022-07-30T06:56:15.348Z,70.36
2022-07-30T06:57:15.337Z,70.06
2022-07-30T06:58:15.320Z,70.39
2022-07-30T06:59:15.312Z,71.26
2022-07-30T07:00:15.293Z,71.26
2022-07-30T07:01:15.372Z,70.56
2022-07-30T07:02:15.268Z,71.12
2022-07-30T07:03:15.300Z,71.23
2022-07-30T07:04:15.342Z,71.23
2022-07-30T07:05:15.232Z,70.46
2022-07-30T07:06:15.219Z,70.06
2022-07-30T07:07:19.974Z,69.73
2022-07-30T07:08:16.222Z,68.40
2022-07-30T07:09:15.177Z,66.66
2022-07-30T07:10:15.170Z,66.17
2022-07-30T07:11:15.158Z,66.36
2022-07-30T07:12:15.143Z,66.06
2022-07-30T07:13:15.124Z,66.56
2022-07-30T07:14:15.120Z,65.20
2022-07-30T07:15:15.102Z,65.17
2022-07-30T07:16:15.091Z,65.56
2022-07-30T07:17:15.144Z,66.66
2022-07-30T07:18:15.065Z,65.26
2022-07-30T07:19:15.052Z,65.87
2022-07-30T07:20:15.041Z,64.97
2022-07-30T07:21:15.029Z,65.34
2022-07-30T07:22:15.016Z,64.94
2022-07-30T07:23:15.002Z,65.01
2022-07-30T07:24:14.991Z,65.14
2022-07-30T07:25:14.974Z,65.41
2022-07-30T07:26:14.965Z,64.31
2022-07-30T07:27:15.409Z,64.67
2022-07-30T07:28:14.934Z,62.55
2022-07-30T07:29:14.921Z,61.93
2022-07-30T07:30:14.910Z,61.66
2022-07-30T07:32:05.365Z,63.75
2022-07-30T07:32:14.889Z,62.29
2022-07-30T07:33:15.533Z,63.65
2022-07-30T07:34:17.152Z,63.35
2022-07-30T07:35:14.844Z,63.22
2022-07-30T07:36:14.841Z,62.75
2022-07-30T07:37:14.820Z,62.45
2022-07-30T07:38:14.814Z,62.02
2022-07-30T07:39:15.088Z,62.32
2022-07-30T07:40:14.784Z,61.10
2022-07-30T07:41:14.766Z,60.57
2022-07-30T07:42:14.758Z,59.68
2022-07-30T07:43:14.741Z,60.47
2022-07-30T07:44:14.733Z,60.12
2022-07-30T07:45:14.718Z,59.30
2022-07-30T07:46:14.708Z,59.14
2022-07-30T07:47:14.690Z,56.23
2022-07-30T07:48:14.686Z,55.71
2022-07-30T07:49:14.731Z,56.28
2022-07-30T07:50:14.661Z,53.88
2022-07-30T07:51:14.638Z,52.59
2022-07-30T07:52:14.623Z,52.76
2022-07-30T07:53:14.610Z,52.39
2022-07-30T07:54:21.638Z,55.33
2022-07-30T07:55:14.582Z,53.92
2022-07-30T07:56:14.573Z,52.93
2022-07-30T07:57:14.641Z,51.03
2022-07-30T07:58:15.550Z,52.22
2022-07-30T07:59:15.554Z,51.10
2022-07-30T08:00:14.528Z,51.57
2022-07-30T08:01:14.564Z,50.68
2022-07-30T08:02:14.538Z,50.98
2022-07-30T08:03:14.486Z,48.98
2022-07-30T08:04:14.483Z,47.97
2022-07-30T08:05:14.464Z,49.92
2022-07-30T08:06:15.248Z,47.55
2022-07-30T08:07:14.435Z,46.44
2022-07-30T08:08:14.424Z,47.35
2022-07-30T08:09:14.405Z,47.65
2022-07-30T08:10:14.398Z,48.27
2022-07-30T08:11:14.381Z,46.78
2022-07-30T08:12:14.378Z,47.35
2022-07-30T08:13:51.559Z,49.40
2022-07-30T08:14:15.370Z,48.79
2022-07-30T08:15:16.239Z,45.61
2022-07-30T08:16:14.323Z,45.71
2022-07-30T08:17:14.417Z,46.69
2022-07-30T08:18:14.295Z,46.37
2022-07-30T08:19:14.283Z,43.82
2022-07-30T08:20:14.272Z,43.13
2022-07-30T08:21:14.256Z,44.15
2022-07-30T08:22:14.252Z,44.72
2022-07-30T08:23:14.242Z,43.86
2022-07-30T08:24:14.225Z,45.46
2022-07-30T08:25:22.447Z,44.83
2022-07-30T08:26:14.203Z,45.25
2022-07-30T08:27:14.185Z,45.13
2022-07-30T08:28:35.320Z,45.79
2022-07-30T08:29:17.192Z,45.70
2022-07-30T08:30:14.154Z,46.33
2022-07-30T08:31:14.141Z,49.02
2022-07-30T08:32:14.124Z,48.98
2022-07-30T08:33:14.108Z,47.16
2022-07-30T08:34:14.100Z,45.34
2022-07-30T08:35:14.084Z,45.90
2022-07-30T08:36:14.073Z,43.74
2022-07-30T08:37:14.213Z,44.96
2022-07-30T08:38:14.048Z,44.45
2022-07-30T08:39:14.033Z,43.13
2022-07-30T08:40:14.025Z,44.80
2022-07-30T08:41:14.014Z,44.31
2022-07-30T08:42:14.007Z,43.97
2022-07-30T08:43:13.988Z,42.77
2022-07-30T08:44:13.975Z,43.43
2022-07-30T08:45:13.962Z,44.52
2022-07-30T08:46:13.959Z,41.64
2022-07-30T08:47:13.934Z,41.24
2022-07-30T08:48:16.685Z,40.31
2022-07-30T08:49:13.915Z,43.05
2022-07-30T08:50:14.072Z,44.48
2022-07-30T08:51:13.894Z,41.49
2022-07-30T08:52:13.888Z,42.43
2022-07-30T08:53:13.866Z,41.24
2022-07-30T08:54:13.858Z,41.00
2022-07-30T08:55:13.853Z,41.02
2022-07-30T08:56:13.833Z,40.96
2022-07-30T08:57:13.820Z,41.51
2022-07-30T08:58:13.812Z,41.99
2022-07-30T08:59:13.794Z,42.42
2022-07-30T09:00:13.784Z,44.14
2022-07-30T09:01:13.776Z,46.75
2022-07-30T09:02:13.926Z,47.05
2022-07-30T09:03:13.766Z,47.37
2022-07-30T09:04:13.740Z,48.21
2022-07-30T09:05:13.723Z,49.89
2022-07-30T09:06:13.715Z,50.01
2022-07-30T09:07:13.697Z,50.93
2022-07-30T09:08:13.691Z,49.24
2022-07-30T09:09:13.674Z,50.36
2022-07-30T09:10:13.671Z,49.39
2022-07-30T09:11:13.649Z,51.28
2022-07-30T09:12:13.637Z,50.38
2022-07-30T09:13:13.622Z,47.94
2022-07-30T09:14:13.611Z,44.91
2022-07-30T09:15:13.603Z,42.77
2022-07-30T09:16:13.643Z,41.93
2022-07-30T09:17:13.580Z,42.47
2022-07-30T09:18:13.569Z,41.06
2022-07-30T09:19:13.549Z,37.38
2022-07-30T09:20:13.545Z,39.76
2022-07-30T09:21:13.532Z,41.74
2022-07-30T09:22:13.521Z,38.56
2022-07-30T09:23:13.507Z,41.43
2022-07-30T09:24:13.497Z,42.83
2022-07-30T09:25:13.480Z,40.62
2022-07-30T09:26:13.468Z,43.01
2022-07-30T09:27:13.455Z,42.93
2022-07-30T09:28:16.042Z,42.38
2022-07-30T09:29:13.426Z,41.04
2022-07-30T09:30:13.417Z,41.98
2022-07-30T09:31:13.408Z,42.25
2022-07-30T09:32:13.397Z,40.51
2022-07-30T09:33:13.381Z,41.73
2022-07-30T09:34:13.369Z,40.94
2022-07-30T09:35:13.355Z,43.93
2022-07-30T09:36:13.346Z,42.30
2022-07-30T09:37:13.336Z,42.91
2022-07-30T09:38:13.326Z,43.21
2022-07-30T09:39:13.302Z,43.45
2022-07-30T09:40:13.297Z,41.61
2022-07-30T09:41:36.190Z,40.33
2022-07-30T09:42:13.267Z,41.08
2022-07-30T09:43:13.255Z,42.83
2022-07-30T09:44:13.249Z,41.38
2022-07-30T09:45:13.229Z,39.66
2022-07-30T09:46:13.220Z,39.86
2022-07-30T09:47:13.206Z,41.11
2022-07-30T09:48:13.199Z,40.17
2022-07-30T09:49:13.225Z,40.58
2022-07-30T09:50:13.171Z,37.54
2022-07-30T09:51:16.008Z,38.50
2022-07-30T09:52:13.154Z,36.42
2022-07-30T09:53:13.137Z,37.52
2022-07-30T09:54:13.132Z,38.85
2022-07-30T09:55:13.111Z,39.43
2022-07-30T09:56:13.102Z,39.03
2022-07-30T09:59:20.116Z,38.84
2022-07-30T10:00:23.701Z,37.23
2022-07-30T10:01:20.097Z,35.35
2022-07-30T10:02:20.075Z,36.04
2022-07-30T10:03:22.031Z,37.39
2022-07-30T10:04:20.056Z,36.30
2022-07-30T10:05:20.345Z,33.79
2022-07-30T10:06:20.032Z,33.79
2022-07-30T10:07:25.298Z,34.67
2022-07-30T10:08:20.009Z,34.49
2022-07-30T10:09:20.000Z,33.98
2022-07-30T10:10:19.988Z,34.86
2022-07-30T10:11:22.796Z,33.89
2022-07-30T10:12:19.958Z,34.75
2022-07-30T10:13:20.891Z,33.95
2022-07-30T10:14:26.960Z,33.09
2022-07-30T10:15:20.953Z,36.40
2022-07-30T10:16:19.921Z,34.14
2022-07-30T10:17:19.911Z,35.69
2022-07-30T10:18:19.898Z,36.26
2022-07-30T10:19:23.466Z,34.62
2022-07-30T10:20:19.866Z,34.99
2022-07-30T10:21:19.860Z,34.00
2022-07-30T10:22:19.844Z,34.67
2022-07-30T10:23:24.062Z,34.01
2022-07-30T10:24:27.742Z,35.04
2022-07-30T10:25:20.724Z,36.82
2022-07-30T10:26:19.797Z,37.43
2022-07-30T10:27:19.795Z,35.80
2022-07-30T10:28:19.779Z,36.62
2022-07-30T10:29:19.768Z,39.00
2022-07-30T10:30:19.760Z,38.96
2022-07-30T10:31:47.978Z,37.25
2022-07-30T10:32:19.742Z,38.70
2022-07-30T10:33:35.200Z,35.34
2022-07-30T10:34:19.709Z,35.93
2022-07-30T10:35:34.379Z,34.78
2022-07-30T10:36:19.683Z,35.75
2022-07-30T10:37:19.674Z,37.10
2022-07-30T10:38:19.662Z,36.51
2022-07-30T10:39:19.657Z,35.53
2022-07-30T10:40:19.639Z,33.87
2022-07-30T10:41:42.293Z,36.22
2022-07-30T10:42:19.621Z,33.48
2022-07-30T10:43:19.618Z,36.51
2022-07-30T10:44:19.700Z,35.91
2022-07-30T10:45:19.593Z,35.40
2022-07-30T10:46:21.855Z,36.38
2022-07-30T10:47:19.568Z,34.89
2022-07-30T10:48:19.555Z,37.02
2022-07-30T10:49:19.661Z,35.82
2022-07-30T10:50:22.328Z,36.08
2022-07-30T10:51:25.439Z,31.59
2022-07-30T10:52:19.506Z,33.82
2022-07-30T10:53:19.491Z,34.37
2022-07-30T10:54:19.491Z,32.40
2022-07-30T10:55:19.476Z,29.40
2022-07-30T10:56:19.466Z,32.34
2022-07-30T10:57:32.327Z,31.77
2022-07-30T10:58:23.091Z,32.28
2022-07-30T10:59:19.429Z,30.83
2022-07-30T11:00:19.424Z,30.83
2022-07-30T11:01:19.410Z,32.01
2022-07-30T11:02:19.783Z,32.89
2022-07-30T11:03:19.380Z,32.19
2022-07-30T11:04:20.405Z,32.68
2022-07-30T11:05:27.295Z,32.87
2022-07-30T11:06:24.395Z,33.25
2022-07-30T11:07:19.337Z,31.98
2022-07-30T11:08:19.330Z,32.16
2022-07-30T11:09:19.317Z,33.43
2022-07-30T11:10:19.311Z,32.92
2022-07-30T11:11:20.411Z,32.60
2022-07-30T11:12:19.462Z,31.14
2022-07-30T11:13:19.276Z,28.82
2022-07-30T11:14:20.471Z,31.54
2022-07-30T11:15:19.909Z,32.73
2022-07-30T11:16:19.248Z,31.28
2022-07-30T11:17:19.235Z,33.41
2022-07-30T11:18:19.221Z,36.09
2022-07-30T11:19:55.988Z,35.82
2022-07-30T11:20:20.226Z,34.46
2022-07-30T11:21:21.357Z,37.95
2022-07-30T11:22:19.176Z,37.15
2022-07-30T11:23:19.163Z,34.46
2022-07-30T11:24:19.152Z,35.91
2022-07-30T11:25:19.139Z,35.29
2022-07-30T11:26:19.125Z,34.39
2022-07-30T11:27:19.112Z,36.22
2022-07-30T11:28:19.103Z,33.25
2022-07-30T11:29:19.090Z,32.37
2022-07-30T11:30:19.087Z,31.20
2022-07-30T11:31:19.066Z,34.34
2022-07-30T11:32:19.080Z,32.86
2022-07-30T11:33:19.047Z,34.23
2022-07-30T11:34:19.044Z,35.21
2022-07-30T11:35:19.030Z,36.52
2022-07-30T11:36:19.018Z,33.77
2022-07-30T11:37:22.468Z,32.66
2022-07-30T11:38:19.346Z,34.06
2022-07-30T11:39:18.986Z,33.89
2022-07-30T11:40:26.504Z,34.30
2022-07-30T11:41:19.986Z,35.39
2022-07-30T11:42:18.946Z,35.58
2022-07-30T11:43:18.933Z,36.39
2022-07-30T11:44:18.925Z,36.49
2022-07-30T11:45:18.912Z,34.85
2022-07-30T11:46:28.465Z,35.97
2022-07-30T11:47:19.913Z,38.84
2022-07-30T11:48:18.880Z,38.54
2022-07-30T11:49:18.919Z,37.30
2022-07-30T11:50:18.862Z,35.80
2022-07-30T11:51:18.841Z,35.35
2022-07-30T11:52:18.833Z,34.74
2022-07-30T11:53:18.817Z,34.31
2022-07-30T11:54:18.814Z,32.62
2022-07-30T11:55:18.796Z,33.48
2022-07-30T11:56:18.790Z,33.23
2022-07-30T11:57:18.771Z,31.51
2022-07-30T11:58:18.767Z,31.34
2022-07-30T11:59:18.752Z,31.68
2022-07-30T12:00:18.746Z,34.85
2022-07-30T12:01:18.735Z,34.30
2022-07-30T12:02:18.719Z,35.26
2022-07-30T12:03:18.705Z,36.54
2022-07-30T12:04:18.696Z,36.03
2022-07-30T12:05:18.712Z,35.44
2022-07-30T12:06:18.669Z,34.95
2022-07-30T12:07:18.656Z,34.66
2022-07-30T12:08:35.202Z,35.55
2022-07-30T12:09:18.640Z,33.69
2022-07-30T12:10:26.866Z,35.82
2022-07-30T12:11:18.608Z,34.85
2022-07-30T12:12:18.602Z,36.34
2022-07-30T12:13:18.584Z,36.46
2022-07-30T12:14:18.581Z,36.26
2022-07-30T12:15:18.560Z,36.08
2022-07-30T12:16:18.557Z,36.10
2022-07-30T12:17:18.543Z,36.79
2022-07-30T12:18:26.432Z,37.79
2022-07-30T12:19:18.518Z,37.20
2022-07-30T12:20:18.507Z,36.59
2022-07-30T12:21:18.495Z,37.76
2022-07-30T12:22:18.484Z,35.57
2022-07-30T12:23:21.741Z,36.32
2022-07-30T12:24:18.463Z,35.82
2022-07-30T12:25:18.448Z,35.31
2022-07-30T12:26:18.433Z,35.88
2022-07-30T12:27:18.424Z,34.52
2022-07-30T12:28:18.417Z,36.21
2022-07-30T12:29:18.399Z,36.03
2022-07-30T12:30:18.401Z,34.97
2022-07-30T12:31:18.370Z,34.59
2022-07-30T12:32:18.364Z,36.85
2022-07-30T12:33:18.347Z,35.18
2022-07-30T12:34:18.341Z,34.61
2022-07-30T12:35:18.324Z,35.41
2022-07-30T12:36:18.315Z,37.08
2022-07-30T12:37:18.298Z,37.97
2022-07-30T12:38:18.295Z,34.92
2022-07-30T12:39:18.279Z,36.97
2022-07-30T12:40:18.273Z,35.49
2022-07-30T12:41:18.254Z,38.85
2022-07-30T12:42:18.243Z,38.76
2022-07-30T12:43:18.230Z,36.32
2022-07-30T12:44:18.224Z,36.72
2022-07-30T12:45:18.207Z,38.30
2022-07-30T12:46:18.194Z,36.15
2022-07-30T12:47:18.177Z,38.93
2022-07-30T12:48:18.172Z,38.26
2022-07-30T12:49:21.309Z,38.26
2022-07-30T12:50:18.146Z,38.35
2022-07-30T12:51:18.127Z,38.56
2022-07-30T12:52:18.531Z,37.87
2022-07-30T12:53:19.126Z,39.15
2022-07-30T12:54:19.551Z,39.62